createdAt,value
2023-03-22T00:01:09.699Z,56.75
2023-03-22T00:04:12.389Z,56.52
2023-03-22T00:07:14.984Z,56.58
2023-03-22T00:10:20.309Z,56.94
2023-03-22T00:13:23.579Z,57.22
2023-03-22T00:16:27.254Z,57.65
2023-03-22T00:19:29.810Z,57.79
2023-03-22T00:22:33.082Z,58.66
2023-03-22T00:25:36.626Z,58.52
2023-03-22T00:28:39.525Z,58.47
2023-03-22T00:31:42.557Z,59.00
2023-03-22T00:34:46.356Z,58.97
2023-03-22T00:37:50.920Z,59.10
2023-03-22T00:40:53.550Z,59.86
2023-03-22T00:43:56.193Z,59.40
2023-03-22T00:46:59.001Z,59.45
2023-03-22T00:50:02.528Z,59.35
2023-03-22T00:53:06.296Z,59.68
2023-03-22T00:56:09.409Z,60.34
2023-03-22T00:59:22.066Z,59.55
2023-03-22T01:02:29.815Z,60.16
2023-03-22T01:05:35.067Z,60.25
2023-03-22T01:08:39.521Z,60.23
2023-03-22T01:11:43.449Z,60.52
2023-03-22T01:14:46.651Z,59.97
2023-03-22T01:17:50.322Z,60.42
2023-03-22T01:20:53.171Z,60.52
2023-03-22T01:23:55.841Z,60.17
2023-03-22T01:26:59.376Z,60.57
2023-03-22T01:30:02.433Z,60.63
2023-03-22T01:33:05.973Z,61.85
2023-03-22T01:36:09.063Z,61.79
2023-03-22T01:39:11.937Z,62.54
2023-03-22T01:42:18.267Z,64.03
2023-03-22T01:45:49.131Z,64.55
2023-03-22T01:48:54.598Z,64.77
2023-03-22T01:52:02.562Z,64.49
2023-03-22T01:55:13.707Z,64.29
2023-03-22T01:58:22.346Z,64.32
2023-03-22T02:01:30.907Z,64.44
2023-03-22T02:04:39.413Z,65.03
2023-03-22T02:07:45.949Z,65.56
2023-03-22T02:10:49.072Z,65.72
2023-03-22T02:14:23.489Z,65.94
2023-03-22T02:17:44.705Z,65.40
2023-03-22T02:20:56.868Z,65.21
2023-03-22T02:24:18.918Z,65.06
2023-03-22T02:27:58.339Z,66.10
2023-03-22T02:31:31.702Z,65.30
2023-03-22T02:34:46.593Z,66.25
2023-03-22T02:38:23.369Z,66.21
2023-03-22T02:41:51.934Z,66.55
2023-03-22T02:45:10.721Z,65.83
2023-03-22T02:48:25.976Z,65.88
2023-03-22T02:51:42.129Z,65.05
2023-03-22T02:55:24.181Z,64.76
2023-03-22T02:58:39.245Z,64.66
2023-03-22T03:01:52.750Z,64.78
2023-03-22T03:04:57.445Z,64.25
2023-03-22T03:08:02.743Z,64.74
2023-03-22T03:11:09.227Z,64.13
2023-03-22T03:14:28.873Z,63.81
2023-03-22T03:18:02.964Z,63.80
2023-03-22T03:21:17.143Z,64.87
2023-03-22T03:24:32.795Z,64.50
2023-03-22T03:27:44.489Z,64.36
2023-03-22T03:30:56.987Z,65.01
2023-03-22T03:34:13.218Z,65.02
2023-03-22T03:37:20.824Z,65.04
2023-03-22T03:40:34.110Z,66.00
2023-03-22T03:43:39.268Z,65.13
2023-03-22T03:46:45.642Z,65.23
2023-03-22T03:49:48.275Z,65.26
2023-03-22T03:52:53.862Z,65.68
2023-03-22T03:55:57.635Z,66.47
2023-03-22T03:59:02.008Z,66.46
2023-03-22T04:02:06.011Z,66.15
2023-03-22T04:05:11.991Z,65.71
2023-03-22T04:08:14.716Z,65.36
2023-03-22T04:11:17.551Z,65.00
2023-03-22T04:14:24.537Z,65.42
2023-03-22T04:17:29.446Z,65.07
2023-03-22T04:20:32.245Z,64.97
2023-03-22T04:23:35.444Z,65.54
2023-03-22T04:26:38.216Z,65.24
2023-03-22T04:29:54.746Z,66.30
2023-03-22T04:33:23.901Z,67.15
2023-03-22T04:37:02.753Z,66.40
2023-03-22T04:40:20.798Z,66.66
2023-03-22T04:43:35.063Z,67.18
2023-03-22T04:46:44.555Z,66.63
2023-03-22T04:49:47.930Z,67.17
2023-03-22T04:52:52.368Z,66.56
2023-03-22T04:55:58.717Z,65.52
2023-03-22T04:59:05.194Z,65.49
2023-03-22T05:02:07.808Z,65.90
2023-03-22T05:05:17.685Z,65.57
2023-03-22T05:08:25.477Z,66.14
2023-03-22T05:11:29.417Z,66.70
2023-03-22T05:14:46.994Z,67.01
2023-03-22T05:17:52.892Z,67.61
2023-03-22T05:20:57.104Z,67.61
2023-03-22T05:24:00.486Z,66.54
2023-03-22T05:27:03.796Z,67.35
2023-03-22T05:30:08.438Z,66.62
2023-03-22T05:33:23.945Z,66.22
2023-03-22T05:36:30.136Z,66.13
2023-03-22T05:40:09.699Z,65.77
2023-03-22T05:43:16.042Z,65.48
2023-03-22T05:46:23.376Z,65.17
2023-03-22T05:49:55.094Z,65.45
2023-03-22T05:53:01.035Z,64.42
2023-03-22T05:56:25.848Z,65.23
2023-03-22T05:59:37.000Z,64.77
2023-03-22T06:02:47.562Z,64.37
2023-03-22T06:05:50.906Z,64.05
2023-03-22T06:09:04.312Z,63.78
2023-03-22T06:12:18.686Z,63.11
2023-03-22T06:15:26.811Z,63.78
2023-03-22T06:18:43.919Z,63.31
2023-03-22T06:21:49.176Z,62.34
2023-03-22T06:24:53.529Z,62.44
2023-03-22T06:28:08.670Z,62.83
2023-03-22T06:31:13.157Z,62.15
2023-03-22T06:34:27.151Z,61.74
2023-03-22T06:37:31.205Z,61.06
2023-03-22T06:40:35.911Z,60.35
2023-03-22T06:43:38.859Z,59.19
2023-03-22T06:46:51.348Z,58.58
2023-03-22T06:50:09.662Z,58.24
2023-03-22T06:53:33.522Z,58.13
2023-03-22T06:56:36.496Z,57.21
2023-03-22T06:59:39.626Z,57.05
2023-03-22T07:02:43.904Z,56.61
2023-03-22T07:06:07.899Z,56.30
2023-03-22T07:09:15.450Z,55.05
2023-03-22T07:12:18.874Z,55.06
2023-03-22T07:15:24.869Z,54.88
2023-03-22T07:18:37.853Z,54.65
2023-03-22T07:21:42.076Z,54.57
2023-03-22T07:24:56.679Z,54.36
2023-03-22T07:28:02.992Z,53.90
2023-03-22T07:31:12.845Z,53.03
2023-03-22T07:34:48.806Z,53.53
2023-03-22T07:37:55.130Z,52.48
2023-03-22T07:41:04.111Z,51.97
2023-03-22T07:44:24.058Z,51.30
2023-03-22T07:47:47.306Z,50.54
2023-03-22T07:51:36.712Z,49.53
2023-03-22T07:55:06.553Z,50.45
2023-03-22T07:58:24.549Z,50.46
2023-03-22T08:01:35.689Z,50.20
2023-03-22T08:05:01.942Z,50.29
2023-03-22T08:08:13.619Z,50.28
2023-03-22T08:11:16.883Z,49.35
2023-03-22T08:14:30.560Z,48.56
2023-03-22T08:17:39.652Z,50.04
2023-03-22T08:20:58.074Z,49.39
2023-03-22T08:24:05.449Z,48.96
2023-03-22T08:27:12.596Z,48.58
2023-03-22T08:30:22.593Z,47.34
2023-03-22T08:33:29.492Z,49.00
2023-03-22T08:36:47.270Z,47.29
2023-03-22T08:40:00.989Z,48.48
2023-03-22T08:43:27.637Z,47.55
2023-03-22T08:46:54.943Z,46.01
2023-03-22T08:50:15.592Z,45.22
2023-03-22T08:53:53.804Z,45.50
2023-03-22T08:57:18.381Z,46.05
2023-03-22T09:00:53.593Z,46.07
2023-03-22T09:04:24.982Z,46.14
2023-03-22T09:07:39.123Z,44.95
2023-03-22T09:11:04.453Z,44.08
2023-03-22T09:14:12.326Z,43.56
2023-03-22T09:17:21.407Z,43.90
2023-03-22T09:20:31.310Z,43.78
2023-03-22T09:23:50.758Z,45.55
2023-03-22T09:27:02.307Z,45.54
2023-03-22T09:30:06.934Z,44.33
2023-03-22T09:33:11.714Z,43.79
2023-03-22T09:36:32.205Z,43.67
2023-03-22T09:46:19.890Z,44.84
2023-03-22T09:50:20.141Z,46.18
2023-03-22T09:53:27.862Z,46.05
2023-03-22T09:56:34.706Z,45.40
2023-03-22T09:59:57.172Z,44.78
2023-03-22T10:03:28.945Z,44.14
2023-03-22T10:06:32.456Z,45.08
2023-03-22T10:10:12.690Z,45.23
2023-03-22T10:13:21.223Z,45.13
2023-03-22T10:16:34.442Z,45.85
2023-03-22T10:19:43.478Z,44.68
2023-03-22T10:22:53.265Z,45.22
2023-03-22T10:25:59.106Z,44.80
2023-03-22T10:29:12.527Z,43.79
2023-03-22T10:32:19.003Z,45.00
2023-03-22T10:35:39.131Z,45.16
2023-03-22T10:38:58.189Z,44.80
2023-03-22T10:42:13.874Z,44.66
2023-03-22T10:45:21.357Z,45.28
2023-03-22T10:48:37.640Z,46.36
2023-03-22T10:51:45.022Z,47.58
2023-03-22T10:54:48.255Z,46.65
2023-03-22T10:58:00.732Z,45.99
2023-03-22T11:01:11.969Z,46.39
2023-03-22T11:04:17.637Z,47.11
2023-03-22T11:07:31.041Z,45.92
2023-03-22T11:10:35.264Z,46.00
2023-03-22T11:13:38.607Z,45.49
2023-03-22T11:17:29.055Z,46.53
2023-03-22T11:20:38.059Z,46.10
2023-03-22T11:23:46.345Z,45.87
2023-03-22T11:27:22.419Z,45.85
2023-03-22T11:30:26.638Z,45.13
2023-03-22T11:33:29.818Z,45.90
2023-03-22T11:36:44.071Z,44.94
2023-03-22T11:39:49.647Z,44.48
2023-03-22T11:42:55.986Z,43.42
2023-03-22T11:46:00.706Z,43.10
2023-03-22T11:49:09.347Z,43.70
2023-03-22T11:52:24.770Z,43.09
2023-03-22T11:55:34.658Z,43.56
2023-03-22T11:58:37.532Z,43.20
2023-03-22T12:02:06.654Z,42.46
2023-03-22T12:05:36.065Z,41.62
2023-03-22T12:08:45.015Z,42.28
2023-03-22T12:11:54.364Z,40.83
2023-03-22T12:15:12.620Z,40.87
2023-03-22T12:18:28.769Z,40.97
2023-03-22T12:21:32.265Z,41.27
2023-03-22T12:24:35.799Z,41.24
2023-03-22T12:27:47.838Z,41.65
2023-03-22T12:30:54.291Z,41.16
2023-03-22T12:34:03.297Z,40.77
2023-03-22T12:37:12.198Z,40.69
2023-03-22T12:40:41.055Z,40.37
2023-03-22T12:44:13.901Z,40.12
2023-03-22T12:47:41.898Z,39.83
2023-03-22T12:50:52.538Z,39.46
2023-03-22T12:54:01.880Z,38.33
2023-03-22T12:57:06.334Z,38.27
2023-03-22T13:00:34.980Z,35.28
2023-03-22T13:04:22.297Z,35.33
2023-03-22T13:07:56.069Z,35.96
2023-03-22T13:11:06.616Z,35.94
2023-03-22T13:14:48.715Z,34.91
2023-03-22T13:17:51.798Z,33.87
2023-03-22T13:21:18.055Z,32.89
2023-03-22T13:24:22.449Z,33.32
2023-03-22T13:27:38.826Z,32.27
2023-03-22T13:30:47.879Z,31.91
2023-03-22T13:33:56.197Z,31.57
2023-03-22T13:37:03.705Z,31.33
2023-03-22T13:40:26.285Z,31.35
2023-03-22T13:43:55.604Z,31.32
2023-03-22T13:58:36.618Z,33.51
2023-03-22T14:01:57.815Z,34.16
2023-03-22T14:05:14.793Z,34.13
2023-03-22T14:08:28.475Z,33.87
2023-03-22T14:11:38.168Z,33.35
2023-03-22T14:14:46.993Z,33.96
2023-03-22T14:17:56.402Z,33.71
2023-03-22T14:21:09.453Z,33.19
